createdAt,value
2023-04-09T00:02:03.484Z,43.10
2023-04-09T00:04:30.468Z,40.40
2023-04-09T00:06:57.668Z,43.17
2023-04-09T00:09:24.553Z,41.07
2023-04-09T00:11:51.300Z,42.53
2023-04-09T00:14:18.450Z,46.03
2023-04-09T00:16:45.277Z,49.67
2023-04-09T00:19:12.943Z,53.80
2023-04-09T00:21:39.764Z,52.83
2023-04-09T00:24:06.531Z,51.57
2023-04-09T00:26:33.267Z,46.70
2023-04-09T00:29:00.056Z,44.47
2023-04-09T00:31:26.870Z,44.93
2023-04-09T00:33:53.739Z,43.40
2023-04-09T00:36:20.424Z,41.13
2023-04-09T00:38:48.778Z,41.73
2023-04-09T00:41:15.644Z,45.47
2023-04-09T00:43:42.398Z,44.27
2023-04-09T00:46:09.328Z,47.20
2023-04-09T00:48:36.109Z,45.87
2023-04-09T00:51:03.294Z,45.57
2023-04-09T00:53:30.136Z,40.47
2023-04-09T00:55:56.957Z,45.57
2023-04-09T00:58:23.906Z,43.43
2023-04-09T01:00:50.911Z,44.93
2023-04-09T01:03:17.890Z,44.53
2023-04-09T01:05:54.101Z,45.40
2023-04-09T01:08:32.897Z,43.50
2023-04-09T01:11:09.250Z,43.23
2023-04-09T01:13:42.647Z,45.97
2023-04-09T01:16:10.831Z,44.63
2023-04-09T01:18:41.392Z,47.27
2023-04-09T01:21:11.145Z,49.27
2023-04-09T01:23:58.205Z,47.53
2023-04-09T01:26:50.124Z,48.27
2023-04-09T01:29:18.576Z,49.17
2023-04-09T01:31:45.538Z,49.77
2023-04-09T01:34:13.141Z,46.90
2023-04-09T01:36:40.609Z,48.00
2023-04-09T01:39:07.603Z,48.57
2023-04-09T01:41:35.488Z,48.00
2023-04-09T01:44:03.658Z,46.10
2023-04-09T01:46:31.351Z,48.77
2023-04-09T01:48:58.607Z,53.37
2023-04-09T01:51:26.742Z,48.90
2023-04-09T01:53:53.477Z,44.73
2023-04-09T01:56:21.493Z,40.60
2023-04-09T01:58:48.279Z,45.60
2023-04-09T02:01:24.522Z,44.53
2023-04-09T02:03:53.256Z,41.63
2023-04-09T02:06:31.888Z,46.57
2023-04-09T02:08:59.373Z,41.80
2023-04-09T02:11:27.012Z,40.50
2023-04-09T02:13:54.598Z,42.60
2023-04-09T02:16:22.043Z,41.50
2023-04-09T02:18:53.314Z,44.10
2023-04-09T02:21:20.531Z,37.93
2023-04-09T02:23:47.233Z,43.97
2023-04-09T02:26:13.996Z,45.77
2023-04-09T02:28:40.866Z,48.33
2023-04-09T02:31:07.671Z,49.13
2023-04-09T02:33:34.424Z,48.17
2023-04-09T02:36:01.212Z,46.10
2023-04-09T02:38:27.985Z,49.40
2023-04-09T02:40:55.376Z,45.27
2023-04-09T02:43:22.146Z,46.27
2023-04-09T02:45:48.882Z,48.33
2023-04-09T02:48:16.452Z,46.83
2023-04-09T02:50:44.697Z,50.07
2023-04-09T02:53:11.537Z,48.77
2023-04-09T02:55:38.214Z,47.77
2023-04-09T02:58:04.952Z,50.43
2023-04-09T03:00:31.725Z,48.70
2023-04-09T03:02:58.679Z,51.67
2023-04-09T03:05:25.495Z,46.13
2023-04-09T03:07:52.234Z,51.53
2023-04-09T03:10:18.988Z,46.67
2023-04-09T03:12:47.977Z,48.17
2023-04-09T03:15:14.740Z,51.50
2023-04-09T03:17:41.597Z,52.17
2023-04-09T03:20:08.531Z,50.03
2023-04-09T03:22:38.456Z,51.03
2023-04-09T03:25:13.563Z,48.30
2023-04-09T03:27:40.407Z,49.77
2023-04-09T03:30:07.485Z,49.37
2023-04-09T03:32:41.150Z,44.77
2023-04-09T03:35:10.310Z,47.50
2023-04-09T03:37:39.336Z,55.00
2023-04-09T03:40:08.613Z,48.87
2023-04-09T03:42:36.441Z,46.67
2023-04-09T03:45:04.505Z,50.57
2023-04-09T03:47:40.043Z,49.80
2023-04-09T03:50:07.663Z,52.37
2023-04-09T03:52:46.117Z,51.80
2023-04-09T03:55:13.426Z,53.30
2023-04-09T03:57:40.645Z,51.63
2023-04-09T04:00:11.967Z,53.93
2023-04-09T04:02:52.025Z,52.90
2023-04-09T04:05:36.475Z,50.63
2023-04-09T04:08:08.170Z,49.40
2023-04-09T04:10:35.085Z,59.70
2023-04-09T04:13:02.478Z,49.97
2023-04-09T04:15:44.038Z,58.03
2023-04-09T04:18:13.724Z,55.73
2023-04-09T04:20:50.159Z,58.37
2023-04-09T04:23:17.574Z,57.97
2023-04-09T04:25:58.185Z,59.27
2023-04-09T04:28:36.568Z,58.13
2023-04-09T04:31:11.131Z,57.97
2023-04-09T04:33:39.762Z,64.63
2023-04-09T04:36:12.208Z,67.33
2023-04-09T04:38:42.819Z,64.20
2023-04-09T04:41:16.509Z,67.87
2023-04-09T04:43:51.208Z,59.10
2023-04-09T04:46:23.357Z,61.43
2023-04-09T04:48:50.397Z,62.10
2023-04-09T04:51:18.211Z,64.20
2023-04-09T04:53:58.104Z,61.50
2023-04-09T04:56:25.876Z,62.53
2023-04-09T04:59:02.527Z,63.40
2023-04-09T05:01:35.910Z,69.37
2023-04-09T05:04:06.954Z,65.93
2023-04-09T05:06:36.426Z,64.13
2023-04-09T05:09:07.535Z,64.87
2023-04-09T05:11:44.299Z,64.37
2023-04-09T05:14:16.215Z,73.00
2023-04-09T05:16:43.039Z,63.20
2023-04-09T05:19:10.212Z,65.53
2023-04-09T05:21:37.918Z,72.27
2023-04-09T05:24:06.351Z,68.87
2023-04-09T05:26:34.126Z,70.47
2023-04-09T05:29:02.365Z,65.50
2023-04-09T05:31:29.316Z,64.07
2023-04-09T05:34:01.733Z,61.27
2023-04-09T05:36:36.502Z,69.43
2023-04-09T05:39:03.764Z,67.00
2023-04-09T05:41:32.831Z,67.20
2023-04-09T05:44:17.747Z,63.40
2023-04-09T05:46:44.775Z,58.23
2023-04-09T05:49:15.026Z,70.93
2023-04-09T05:51:44.203Z,66.53
2023-04-09T05:54:11.575Z,63.10
2023-04-09T05:56:38.618Z,66.20
2023-04-09T05:59:06.188Z,63.33
2023-04-09T06:01:33.212Z,64.80
2023-04-09T06:04:00.363Z,62.63
2023-04-09T06:06:30.275Z,62.47
2023-04-09T06:08:57.087Z,61.73
2023-04-09T06:11:23.889Z,62.97
2023-04-09T06:13:51.641Z,63.20
2023-04-09T06:16:18.604Z,59.53
2023-04-09T06:18:46.965Z,64.20
2023-04-09T06:21:13.866Z,64.07
2023-04-09T06:23:41.284Z,61.73
2023-04-09T06:26:08.031Z,59.93
2023-04-09T06:28:34.951Z,56.80
2023-04-09T06:31:02.102Z,64.73
2023-04-09T06:33:29.488Z,58.53
2023-04-09T06:35:56.569Z,62.83
2023-04-09T06:38:23.470Z,58.47
2023-04-09T06:40:50.604Z,57.07
2023-04-09T06:43:17.344Z,53.37
2023-04-09T06:45:49.915Z,51.57
2023-04-09T06:48:16.838Z,49.83
2023-04-09T06:50:44.148Z,50.73
2023-04-09T06:53:11.053Z,50.67
2023-04-09T06:55:37.819Z,52.00
2023-04-09T06:58:04.570Z,48.93
2023-04-09T07:00:31.389Z,48.83
2023-04-09T07:02:58.387Z,43.60
2023-04-09T07:05:25.771Z,38.60
2023-04-09T07:07:52.807Z,38.17
2023-04-09T07:10:19.535Z,37.00
2023-04-09T07:12:46.315Z,38.30
2023-04-09T07:15:13.048Z,34.40
2023-04-09T07:17:39.930Z,33.37
2023-04-09T07:20:06.901Z,37.63
2023-04-09T07:22:33.855Z,29.07
2023-04-09T07:25:00.778Z,32.37
2023-04-09T07:27:27.782Z,30.60
2023-04-09T07:29:55.761Z,30.17
2023-04-09T07:32:22.691Z,28.57
2023-04-09T07:34:51.376Z,28.53
2023-04-09T07:37:18.264Z,26.00
2023-04-09T07:39:45.109Z,29.23
2023-04-09T07:42:11.866Z,29.50
2023-04-09T07:44:38.909Z,28.97
2023-04-09T07:47:07.158Z,25.27
2023-04-09T07:49:35.867Z,26.37
2023-04-09T07:52:02.569Z,26.93
2023-04-09T07:54:30.660Z,28.63
2023-04-09T07:56:57.939Z,25.83
2023-04-09T07:59:24.901Z,24.47
2023-04-09T08:01:51.773Z,25.47
2023-04-09T08:04:18.887Z,25.60
2023-04-09T08:06:50.917Z,23.80
2023-04-09T08:09:18.676Z,24.67
2023-04-09T08:11:48.623Z,27.50
2023-04-09T08:14:16.425Z,24.77
2023-04-09T08:16:44.420Z,21.60
2023-04-09T08:19:11.244Z,22.73
2023-04-09T08:21:39.039Z,20.83
2023-04-09T08:24:07.300Z,23.13
2023-04-09T08:26:34.096Z,20.80
2023-04-09T08:29:01.077Z,24.73
2023-04-09T08:31:27.866Z,22.97
2023-04-09T08:33:54.821Z,21.53
2023-04-09T08:36:21.829Z,20.73
2023-04-09T08:38:49.373Z,21.80
2023-04-09T08:41:19.457Z,21.43
2023-04-09T08:46:20.128Z,17.40
2023-04-09T08:48:47.851Z,16.87
2023-04-09T08:51:16.165Z,18.13
2023-04-09T08:53:46.575Z,13.37
2023-04-09T08:56:14.338Z,11.50
2023-04-09T08:58:45.462Z,10.40
2023-04-09T09:01:22.555Z,9.47
2023-04-09T09:03:57.286Z,9.97
2023-04-09T09:06:26.402Z,11.60
2023-04-09T09:09:04.447Z,10.37
2023-04-09T09:11:31.351Z,6.50
2023-04-09T09:13:59.040Z,6.03
2023-04-09T09:16:26.510Z,6.20
2023-04-09T09:18:54.520Z,5.17
2023-04-09T09:21:21.881Z,4.70
2023-04-09T09:23:50.710Z,6.07
2023-04-09T09:26:18.998Z,5.43
2023-04-09T09:28:47.142Z,4.37
2023-04-09T09:31:14.606Z,4.17
2023-04-09T09:33:41.658Z,4.53
2023-04-09T09:36:11.421Z,4.50
2023-04-09T09:38:54.198Z,4.83
2023-04-09T09:41:21.574Z,5.87
2023-04-09T09:43:48.690Z,4.33
2023-04-09T09:46:16.252Z,5.13
2023-04-09T09:48:43.161Z,4.50
2023-04-09T09:51:11.163Z,5.33
2023-04-09T09:53:38.889Z,5.93
2023-04-09T09:56:06.215Z,5.27
2023-04-09T09:58:36.975Z,5.70
2023-04-09T10:01:07.932Z,5.33
2023-04-09T10:03:35.806Z,6.13
2023-04-09T10:06:03.349Z,4.67
2023-04-09T10:08:31.291Z,5.23
2023-04-09T10:10:58.019Z,4.83
2023-04-09T10:13:27.309Z,4.47
2023-04-09T10:15:54.566Z,5.20
2023-04-09T10:18:21.556Z,4.43
2023-04-09T10:20:59.540Z,4.63
2023-04-09T10:23:42.625Z,5.23
2023-04-09T10:26:09.376Z,5.43
2023-04-09T10:28:39.062Z,5.00
2023-04-09T10:31:06.965Z,5.57
2023-04-09T10:33:36.158Z,5.27
2023-04-09T10:36:12.929Z,5.10
2023-04-09T10:38:43.160Z,5.20
2023-04-09T10:41:14.125Z,6.37
2023-04-09T10:43:41.320Z,5.47
2023-04-09T10:46:08.569Z,5.57
2023-04-09T10:48:35.408Z,5.93
2023-04-09T10:51:05.629Z,5.17
2023-04-09T10:53:32.390Z,6.20
2023-04-09T10:55:59.117Z,4.23
2023-04-09T10:58:26.423Z,4.70
2023-04-09T11:00:53.991Z,4.83
2023-04-09T11:03:24.981Z,5.10
2023-04-09T11:05:52.931Z,4.93
2023-04-09T11:08:22.283Z,6.80
2023-04-09T11:10:51.795Z,6.27
2023-04-09T11:13:21.099Z,4.27
2023-04-09T11:15:49.085Z,4.87
2023-04-09T11:18:19.718Z,5.53
2023-04-09T11:20:46.477Z,4.27
2023-04-09T11:23:13.546Z,5.33
2023-04-09T11:25:40.362Z,4.53
2023-04-09T11:28:08.295Z,4.40
2023-04-09T11:30:35.867Z,4.60
2023-04-09T11:33:02.742Z,5.20
2023-04-09T11:35:30.328Z,6.57
2023-04-09T11:37:57.212Z,7.40
2023-04-09T11:40:26.327Z,5.70
2023-04-09T11:42:53.639Z,5.17
2023-04-09T11:45:23.410Z,4.97
2023-04-09T11:47:50.477Z,4.60
2023-04-09T11:50:17.512Z,5.47
2023-04-09T11:52:45.595Z,6.17
2023-04-09T11:55:12.383Z,4.93
2023-04-09T11:57:43.118Z,5.13
2023-04-09T12:00:14.202Z,5.10
2023-04-09T12:02:50.801Z,4.47
2023-04-09T12:05:21.884Z,4.43
2023-04-09T12:07:55.373Z,5.37
2023-04-09T12:10:26.580Z,4.07
2023-04-09T12:12:53.516Z,4.47
2023-04-09T12:15:24.863Z,4.30
2023-04-09T12:17:53.798Z,4.70
2023-04-09T12:20:30.688Z,5.00
2023-04-09T12:22:58.240Z,4.37
2023-04-09T12:25:25.098Z,5.93
2023-04-09T12:27:51.883Z,4.80
2023-04-09T12:30:18.633Z,4.63
2023-04-09T12:32:46.183Z,4.77
2023-04-09T12:35:13.447Z,4.13
2023-04-09T12:37:40.538Z,4.00
2023-04-09T12:40:07.729Z,4.97
2023-04-09T12:42:34.510Z,4.57
2023-04-09T12:45:01.434Z,4.53
2023-04-09T12:47:28.307Z,4.20
2023-04-09T12:49:55.178Z,5.37
2023-04-09T12:52:22.743Z,6.57
2023-04-09T12:54:49.446Z,4.67
2023-04-09T12:57:16.626Z,5.30
2023-04-09T12:59:43.473Z,5.00
2023-04-09T13:02:10.763Z,4.67
2023-04-09T13:04:37.753Z,5.10
2023-04-09T13:07:04.522Z,5.40
2023-04-09T13:09:31.828Z,5.33
2023-04-09T13:11:58.625Z,4.73
2023-04-09T13:14:25.371Z,5.30
2023-04-09T13:16:52.913Z,5.20
2023-04-09T13:19:19.957Z,4.63
2023-04-09T13:21:46.733Z,4.80
2023-04-09T13:24:13.615Z,5.60
2023-04-09T13:26:41.720Z,5.63
2023-04-09T13:29:08.492Z,4.97
2023-04-09T13:31:38.045Z,4.70
2023-04-09T13:34:04.878Z,6.97
2023-04-09T13:36:31.807Z,5.63
2023-04-09T13:39:04.569Z,6.00
2023-04-09T13:41:32.307Z,6.33
2023-04-09T13:43:59.634Z,6.40
2023-04-09T13:46:26.482Z,6.00
2023-04-09T13:48:55.125Z,6.70
2023-04-09T13:51:22.311Z,7.13
2023-04-09T13:53:49.346Z,5.40
2023-04-09T13:56:16.857Z,5.03
2023-04-09T13:58:43.987Z,6.53
2023-04-09T14:01:15.939Z,5.57
2023-04-09T14:03:43.536Z,5.27
2023-04-09T14:06:10.570Z,5.80
2023-04-09T14:08:37.451Z,5.47
2023-04-09T14:11:04.316Z,5.13
2023-04-09T14:13:31.287Z,6.30
2023-04-09T14:16:00.333Z,6.13
2023-04-09T14:18:27.683Z,16.13
2023-04-09T14:20:54.549Z,14.17
2023-04-09T14:23:21.684Z,7.70
2023-04-09T14:25:48.607Z,5.93
2023-04-09T14:28:15.607Z,5.37
2023-04-09T14:30:42.334Z,5.30
2023-04-09T14:33:09.147Z,4.70
2023-04-09T14:35:36.092Z,5.30
2023-04-09T14:38:04.640Z,4.60
2023-04-09T14:40:32.320Z,4.23
2023-04-09T14:42:59.809Z,4.47
2023-04-09T14:45:28.761Z,6.13
2023-04-09T14:47:57.018Z,4.13
2023-04-09T14:50:23.769Z,4.67
2023-04-09T14:52:50.952Z,5.03
2023-04-09T14:55:17.727Z,6.80
2023-04-09T14:57:44.778Z,5.37
2023-04-09T15:00:12.437Z,5.50
2023-04-09T15:02:39.709Z,4.70
2023-04-09T15:05:07.096Z,5.20
2023-04-09T15:07:33.989Z,6.33
2023-04-09T15:10:01.341Z,6.80
2023-04-09T15:12:29.280Z,5.57
2023-04-09T15:14:57.435Z,5.20
2023-04-09T15:17:25.266Z,5.93
2023-04-09T15:19:55.865Z,5.87
2023-04-09T15:22:23.227Z,8.20
2023-04-09T15:24:50.884Z,7.03
2023-04-09T15:27:17.876Z,5.23
2023-04-09T15:29:44.659Z,4.27
2023-04-09T15:32:11.493Z,4.20
2023-04-09T15:34:38.290Z,7.17
2023-04-09T15:37:05.466Z,4.50
2023-04-09T15:39:32.743Z,5.90
2023-04-09T15:41:59.640Z,5.53
2023-04-09T15:44:26.559Z,5.10
2023-04-09T15:46:53.471Z,5.43
2023-04-09T15:49:20.243Z,7.30
2023-04-09T15:51:46.959Z,5.60
2023-04-09T15:54:13.755Z,4.83
2023-04-09T15:56:40.829Z,4.23
2023-04-09T15:59:08.549Z,4.87
2023-04-09T16:01:36.376Z,6.20
2023-04-09T16:04:03.804Z,5.57
2023-04-09T16:06:30.954Z,6.53
2023-04-09T16:08:57.751Z,4.67
2023-04-09T16:11:24.500Z,4.77
2023-04-09T16:13:51.251Z,4.37
2023-04-09T16:16:17.996Z,6.70
2023-04-09T16:18:44.783Z,5.17
2023-04-09T16:21:11.498Z,5.00
2023-04-09T16:23:38.737Z,5.47
2023-04-09T16:26:05.928Z,6.10
2023-04-09T16:28:32.691Z,5.50
2023-04-09T16:30:59.640Z,6.90
2023-04-09T16:33:26.806Z,4.93
2023-04-09T16:35:53.878Z,5.87
2023-04-09T16:38:20.930Z,4.77
2023-04-09T16:40:47.692Z,6.43
2023-04-09T16:43:14.474Z,4.50
2023-04-09T16:45:41.433Z,3.70
2023-04-09T16:48:12.622Z,3.93
2023-04-09T16:50:39.996Z,5.30
2023-04-09T16:53:06.802Z,4.80
2023-04-09T16:55:33.912Z,5.17
2023-04-09T16:58:01.187Z,4.87
2023-04-09T17:00:27.963Z,4.87
2023-04-09T17:02:56.061Z,4.80
2023-04-09T17:05:23.036Z,8.07
2023-04-09T17:07:49.742Z,6.60
2023-04-09T17:10:16.622Z,5.20
2023-04-09T17:12:43.786Z,6.57
2023-04-09T17:15:10.867Z,4.77
2023-04-09T17:17:38.290Z,4.60
2023-04-09T17:20:05.860Z,4.70
2023-04-09T17:22:32.704Z,4.60
2023-04-09T17:24:59.468Z,4.53
2023-04-09T17:27:26.194Z,6.33
2023-04-09T17:29:54.040Z,3.83
2023-04-09T17:32:20.938Z,4.80
2023-04-09T17:34:49.516Z,4.17
2023-04-09T17:37:16.799Z,5.10
2023-04-09T17:39:43.720Z,4.37
2023-04-09T17:42:11.955Z,3.73
2023-04-09T17:44:38.858Z,5.57
2023-04-09T17:47:07.553Z,4.80
2023-04-09T17:49:34.934Z,5.03
2023-04-09T17:52:01.820Z,5.03
2023-04-09T17:54:34.886Z,4.30
2023-04-09T17:57:02.575Z,5.37
2023-04-09T17:59:29.384Z,5.27
2023-04-09T18:01:57.024Z,5.50
2023-04-09T18:04:24.268Z,5.10
2023-04-09T18:06:51.633Z,5.00
2023-04-09T18:09:18.707Z,6.33
2023-04-09T18:11:46.028Z,5.77
2023-04-09T18:14:12.839Z,5.73
2023-04-09T18:16:39.800Z,5.57
2023-04-09T18:19:06.834Z,6.57
2023-04-09T18:21:36.493Z,5.57
2023-04-09T18:24:03.874Z,6.27
2023-04-09T18:26:31.505Z,4.87
2023-04-09T18:29:00.836Z,6.50
2023-04-09T18:31:28.156Z,5.73
2023-04-09T18:33:54.955Z,6.13
2023-04-09T18:36:21.740Z,5.73
2023-04-09T18:38:49.065Z,4.93
2023-04-09T18:41:23.356Z,5.57
2023-04-09T18:43:50.106Z,7.20
2023-04-09T18:46:18.717Z,5.80
2023-04-09T18:48:47.183Z,6.53
2023-04-09T18:51:14.763Z,8.10
2023-04-09T18:53:42.285Z,6.40
2023-04-09T18:56:09.468Z,8.53
2023-04-09T18:58:36.508Z,6.13
2023-04-09T19:01:09.857Z,5.93
2023-04-09T19:03:36.865Z,6.83
2023-04-09T19:06:10.182Z,7.13
2023-04-09T19:08:38.435Z,7.30
2023-04-09T19:11:06.640Z,7.43
2023-04-09T19:13:33.482Z,8.63
2023-04-09T19:16:00.224Z,8.43
2023-04-09T19:18:27.014Z,8.47
2023-04-09T19:20:53.824Z,6.50
2023-04-09T19:23:20.527Z,7.87
2023-04-09T19:25:51.878Z,7.23
2023-04-09T19:28:18.787Z,8.90
2023-04-09T19:30:45.603Z,8.17
2023-04-09T19:33:12.556Z,8.10
2023-04-09T19:35:41.138Z,8.73
2023-04-09T19:38:08.198Z,9.27
2023-04-09T19:40:35.036Z,8.73
2023-04-09T19:43:01.876Z,9.07
2023-04-09T19:45:28.808Z,8.60
2023-04-09T19:47:56.113Z,8.43
2023-04-09T19:50:23.153Z,8.67
2023-04-09T19:52:49.825Z,6.60
2023-04-09T19:55:17.367Z,8.20
2023-04-09T19:57:46.080Z,8.00
2023-04-09T20:00:13.246Z,7.30
2023-04-09T20:02:41.737Z,6.97
2023-04-09T20:05:09.315Z,8.10
2023-04-09T20:07:36.292Z,8.53
2023-04-09T20:10:03.574Z,12.03
2023-04-09T20:12:30.372Z,11.60
2023-04-09T20:14:57.497Z,17.17
2023-04-09T20:17:24.721Z,19.47
2023-04-09T20:19:51.905Z,18.47
2023-04-09T20:22:18.650Z,17.47
2023-04-09T20:24:45.897Z,17.03
2023-04-09T20:27:12.907Z,12.63
2023-04-09T20:29:39.956Z,13.17
2023-04-09T20:32:06.716Z,9.80
2023-04-09T20:34:33.582Z,9.87
2023-04-09T20:37:00.564Z,9.60
2023-04-09T20:39:27.409Z,8.87
2023-04-09T20:41:55.267Z,8.53
2023-04-09T20:44:22.666Z,7.90
2023-04-09T20:46:49.399Z,8.20
2023-04-09T20:49:16.570Z,11.27
2023-04-09T20:51:43.272Z,9.17
2023-04-09T20:54:10.100Z,7.57
2023-04-09T20:56:36.769Z,6.73
2023-04-09T20:59:03.740Z,6.37
2023-04-09T21:01:30.496Z,6.70
2023-04-09T21:03:57.689Z,8.07
2023-04-09T21:06:24.520Z,7.30
2023-04-09T21:08:51.846Z,7.67
2023-04-09T21:11:18.719Z,7.70
2023-04-09T21:16:15.545Z,7.17
2023-04-09T21:18:42.683Z,7.10
2023-04-09T21:21:09.549Z,8.50
2023-04-09T21:23:36.291Z,7.53
2023-04-09T21:26:03.665Z,6.80
2023-04-09T21:28:31.048Z,9.17
2023-04-09T21:30:58.028Z,7.50
2023-04-09T21:33:26.629Z,8.13
2023-04-09T21:35:54.694Z,7.23
2023-04-09T21:38:21.786Z,7.00
2023-04-09T21:40:48.576Z,6.83
2023-04-09T21:43:15.279Z,5.87
2023-04-09T21:45:42.383Z,6.43
2023-04-09T21:48:09.371Z,7.20
2023-04-09T21:50:36.215Z,7.17
2023-04-09T21:53:03.374Z,7.07
2023-04-09T21:55:30.598Z,5.80
2023-04-09T21:57:57.416Z,5.83
2023-04-09T22:00:24.221Z,5.73
2023-04-09T22:02:51.218Z,6.70
2023-04-09T22:05:18.131Z,5.80
2023-04-09T22:07:45.361Z,6.53
2023-04-09T22:10:12.083Z,7.57
2023-04-09T22:12:38.829Z,7.23
2023-04-09T22:15:06.248Z,7.70
2023-04-09T22:17:33.060Z,7.43
2023-04-09T22:19:59.775Z,7.40
2023-04-09T22:22:27.126Z,6.90
2023-04-09T22:24:53.937Z,7.90
2023-04-09T22:27:20.663Z,7.13
2023-04-09T22:29:47.443Z,7.53
2023-04-09T22:32:14.158Z,6.77
2023-04-09T22:34:41.232Z,7.13
2023-04-09T22:37:07.939Z,7.20
2023-04-09T22:39:34.691Z,7.67
2023-04-09T22:42:01.989Z,6.87
2023-04-09T22:44:29.394Z,5.80
2023-04-09T22:46:56.773Z,7.47
2023-04-09T22:49:24.200Z,6.10
2023-04-09T22:51:51.075Z,6.00
2023-04-09T22:54:17.823Z,6.50
2023-04-09T22:56:45.406Z,6.77
2023-04-09T22:59:12.120Z,6.97
2023-04-09T23:01:38.944Z,5.23
2023-04-09T23:04:06.019Z,5.87
2023-04-09T23:06:32.712Z,5.93
2023-04-09T23:09:02.271Z,7.00
2023-04-09T23:11:29.340Z,6.60
2023-04-09T23:13:56.621Z,5.70
2023-04-09T23:16:23.530Z,4.93
2023-04-09T23:18:50.432Z,8.60
2023-04-09T23:21:17.442Z,6.60
2023-04-09T23:23:44.149Z,6.07
2023-04-09T23:26:11.287Z,6.37
2023-04-09T23:28:37.973Z,5.87
2023-04-09T23:31:05.056Z,6.47
2023-04-09T23:33:32.789Z,5.87
2023-04-09T23:35:59.814Z,6.07
2023-04-09T23:38:27.231Z,6.40
2023-04-09T23:40:54.014Z,6.17
2023-04-09T23:43:20.859Z,6.13
2023-04-09T23:45:49.943Z,5.23
2023-04-09T23:48:17.226Z,6.23
2023-04-09T23:50:43.984Z,6.23
2023-04-09T23:53:11.122Z,5.57
2023-04-09T23:55:38.719Z,5.80
2023-04-09T23:58:05.598Z,5.93
